createdAt,value
2019-05-30T00:00:24.047Z,989.54
2019-05-30T00:01:24.018Z,989.47
2019-05-30T00:02:24.099Z,989.51
2019-05-30T00:03:24.086Z,989.47
2019-05-30T00:04:23.970Z,989.50
2019-05-30T00:05:24.043Z,989.54
2019-05-30T00:06:23.951Z,989.52
2019-05-30T00:07:24.031Z,989.50
2019-05-30T00:08:23.931Z,989.50
2019-05-30T00:09:23.971Z,989.53
2019-05-30T00:10:23.922Z,989.51
2019-05-30T00:11:24.023Z,989.56
2019-05-30T00:12:23.895Z,989.59
2019-05-30T00:13:23.945Z,989.58
2019-05-30T00:14:23.875Z,989.57
2019-05-30T00:15:23.935Z,989.57
2019-05-30T00:16:23.846Z,989.52
2019-05-30T00:17:23.926Z,989.56
2019-05-30T00:18:23.826Z,989.57
2019-05-30T00:19:23.850Z,989.60
2019-05-30T00:20:23.814Z,989.56
2019-05-30T00:21:23.888Z,989.58
2019-05-30T00:22:23.778Z,989.61
2019-05-30T00:23:23.819Z,989.63
2019-05-30T00:24:23.752Z,989.62
2019-05-30T00:25:23.811Z,989.61
2019-05-30T00:26:23.732Z,989.59
2019-05-30T00:27:23.802Z,989.64
2019-05-30T00:28:23.726Z,989.62
2019-05-30T00:29:23.702Z,989.58
2019-05-30T00:30:24.958Z,989.57
2019-05-30T00:31:23.684Z,989.60
2019-05-30T00:32:23.733Z,989.60
2019-05-30T00:33:23.657Z,989.53
2019-05-30T00:34:23.733Z,989.56
2019-05-30T00:35:23.676Z,989.56
2019-05-30T00:36:23.620Z,989.54
2019-05-30T00:37:23.690Z,989.59
2019-05-30T00:38:23.597Z,989.56
2019-05-30T00:39:23.588Z,989.50
2019-05-30T00:40:23.637Z,989.53
2019-05-30T00:41:23.580Z,989.58
2019-05-30T00:42:23.647Z,989.60
2019-05-30T00:43:23.549Z,989.59
2019-05-30T00:44:23.540Z,989.62
2019-05-30T00:45:23.551Z,989.60
2019-05-30T00:46:23.591Z,989.59
2019-05-30T00:47:23.502Z,989.59
2019-05-30T00:48:23.533Z,989.52
2019-05-30T00:49:23.484Z,989.56
2019-05-30T00:50:23.533Z,989.55
2019-05-30T00:51:23.453Z,989.56
2019-05-30T00:52:23.497Z,989.57
2019-05-30T00:53:23.435Z,989.58
2019-05-30T00:54:23.425Z,989.59
2019-05-30T00:55:23.445Z,989.56
2019-05-30T00:56:23.418Z,989.54
2019-05-30T00:57:23.438Z,989.54
2019-05-30T00:58:23.387Z,989.59
2019-05-30T00:59:23.377Z,989.60
2019-05-30T01:00:41.628Z,989.64
2019-05-30T01:01:24.348Z,989.61
2019-05-30T01:02:23.369Z,989.63
2019-05-30T01:03:23.329Z,989.60
2019-05-30T01:04:23.346Z,989.58
2019-05-30T01:05:26.607Z,989.58
2019-05-30T01:06:23.354Z,989.57
2019-05-30T01:07:23.281Z,989.58
2019-05-30T01:08:23.387Z,989.54
2019-05-30T01:09:23.272Z,989.59
2019-05-30T01:10:23.373Z,989.58
2019-05-30T01:11:23.243Z,989.58
2019-05-30T01:12:23.255Z,989.57
2019-05-30T01:13:23.225Z,989.54
2019-05-30T01:14:23.296Z,989.54
2019-05-30T01:15:23.206Z,989.51
2019-05-30T01:16:23.286Z,989.53
2019-05-30T01:17:23.177Z,989.52
2019-05-30T01:18:23.267Z,989.52
2019-05-30T01:19:23.147Z,989.49
2019-05-30T01:20:23.138Z,989.52
2019-05-30T01:21:23.209Z,989.51
2019-05-30T01:22:23.119Z,989.55
2019-05-30T01:23:24.130Z,989.57
2019-05-30T01:24:23.110Z,989.61
2019-05-30T01:25:23.103Z,989.58
2019-05-30T01:26:23.161Z,989.60
2019-05-30T01:27:23.072Z,989.63
2019-05-30T01:28:23.152Z,989.65
2019-05-30T01:29:23.054Z,989.64
2019-05-30T01:30:23.051Z,989.63
2019-05-30T01:31:23.094Z,989.61
2019-05-30T01:32:23.005Z,989.58
2019-05-30T01:33:23.085Z,989.57
2019-05-30T01:34:22.986Z,989.55
2019-05-30T01:35:22.976Z,989.52
2019-05-30T01:36:22.976Z,989.51
2019-05-30T01:37:23.067Z,989.52
2019-05-30T01:38:22.948Z,989.57
2019-05-30T01:39:22.997Z,989.51
2019-05-30T01:40:22.934Z,989.53
2019-05-30T01:41:22.979Z,989.53
2019-05-30T01:42:22.912Z,989.52
2019-05-30T01:43:22.970Z,989.51
2019-05-30T01:44:22.892Z,989.49
2019-05-30T01:45:22.870Z,989.49
2019-05-30T01:46:22.872Z,989.53
2019-05-30T01:47:22.943Z,989.52
2019-05-30T01:48:22.832Z,989.49
2019-05-30T01:49:22.872Z,989.52
2019-05-30T01:50:22.843Z,989.52
2019-05-30T01:51:22.813Z,989.55
2019-05-30T01:52:22.891Z,989.48
2019-05-30T01:53:22.774Z,989.51
2019-05-30T01:54:22.826Z,989.51
2019-05-30T01:55:22.885Z,989.50
2019-05-30T01:56:22.836Z,989.54
2019-05-30T01:57:22.827Z,989.49
2019-05-30T01:58:22.729Z,989.53
2019-05-30T01:59:22.758Z,989.52
2019-05-30T02:00:22.718Z,989.52
2019-05-30T02:01:25.415Z,989.53
2019-05-30T02:02:22.770Z,989.50
2019-05-30T02:03:22.669Z,989.50
2019-05-30T02:04:22.690Z,989.51
2019-05-30T02:05:22.641Z,989.51
2019-05-30T02:06:22.681Z,989.52
2019-05-30T02:07:22.624Z,989.49
2019-05-30T02:08:22.678Z,989.48
2019-05-30T02:09:22.612Z,989.46
2019-05-30T02:10:22.603Z,989.51
2019-05-30T02:11:22.606Z,989.48
2019-05-30T02:12:22.646Z,989.50
2019-05-30T02:13:22.566Z,989.49
2019-05-30T02:14:22.586Z,989.51
2019-05-30T02:15:22.544Z,989.50
2019-05-30T02:16:22.560Z,989.55
2019-05-30T02:17:22.506Z,989.58
2019-05-30T02:18:22.548Z,989.56
2019-05-30T02:19:22.489Z,989.52
2019-05-30T02:20:22.588Z,989.54
2019-05-30T02:21:22.478Z,989.57
2019-05-30T02:22:22.520Z,989.53
2019-05-30T02:23:22.452Z,989.52
2019-05-30T02:24:22.460Z,989.56
2019-05-30T02:25:22.415Z,989.55
2019-05-30T02:26:22.436Z,989.55
2019-05-30T02:27:22.392Z,989.59
2019-05-30T02:28:22.425Z,989.63
2019-05-30T02:29:22.363Z,989.62
2019-05-30T02:30:22.463Z,989.62
2019-05-30T02:31:38.332Z,989.60
2019-05-30T02:32:23.357Z,989.62
2019-05-30T02:33:22.375Z,989.64
2019-05-30T02:34:22.305Z,989.62
2019-05-30T02:35:22.411Z,989.65
2019-05-30T02:36:22.303Z,989.60
2019-05-30T02:37:22.387Z,989.61
2019-05-30T02:38:22.297Z,989.58
2019-05-30T02:39:22.270Z,989.59
2019-05-30T02:40:22.258Z,989.55
2019-05-30T02:41:22.320Z,989.59
2019-05-30T02:42:22.269Z,989.61
2019-05-30T02:43:22.250Z,989.57
2019-05-30T02:44:22.201Z,989.63
2019-05-30T02:45:22.283Z,989.64
2019-05-30T02:46:22.171Z,989.64
2019-05-30T02:47:22.710Z,989.66
2019-05-30T02:48:22.293Z,989.62
2019-05-30T02:49:22.149Z,989.62
2019-05-30T02:50:24.165Z,989.59
2019-05-30T02:51:22.125Z,989.61
2019-05-30T02:52:22.148Z,989.58
2019-05-30T02:53:22.124Z,989.62
2019-05-30T02:54:22.111Z,989.62
2019-05-30T02:55:22.178Z,989.62
2019-05-30T02:56:22.078Z,989.63
2019-05-30T02:57:22.093Z,989.63
2019-05-30T02:58:22.050Z,989.60
2019-05-30T02:59:22.161Z,989.65
2019-05-30T03:00:22.029Z,989.59
2019-05-30T03:01:22.094Z,989.62
2019-05-30T03:02:22.089Z,989.63
2019-05-30T03:03:21.993Z,989.65
2019-05-30T03:04:22.081Z,989.57
2019-05-30T03:05:21.972Z,989.61
2019-05-30T03:06:22.018Z,989.63
2019-05-30T03:07:21.979Z,989.60
2019-05-30T03:08:21.954Z,989.57
2019-05-30T03:09:21.934Z,989.59
2019-05-30T03:10:21.995Z,989.61
2019-05-30T03:11:21.928Z,989.61
2019-05-30T03:12:21.925Z,989.59
2019-05-30T03:13:21.901Z,989.58
2019-05-30T03:14:21.972Z,989.55
2019-05-30T03:15:21.856Z,989.57
2019-05-30T03:16:21.898Z,989.52
2019-05-30T03:17:21.838Z,989.58
2019-05-30T03:18:21.838Z,989.54
2019-05-30T03:19:22.936Z,989.52
2019-05-30T03:20:23.394Z,989.59
2019-05-30T03:21:21.844Z,989.55
2019-05-30T03:22:21.791Z,989.61
2019-05-30T03:23:21.791Z,989.63
2019-05-30T03:24:21.765Z,989.63
2019-05-30T03:25:21.812Z,989.64
2019-05-30T03:26:21.742Z,989.57
2019-05-30T03:27:21.771Z,989.67
2019-05-30T03:28:21.757Z,989.68
2019-05-30T03:29:21.704Z,989.74
2019-05-30T03:30:28.123Z,989.72
2019-05-30T03:31:28.840Z,989.75
2019-05-30T03:33:01.698Z,989.75
2019-05-30T03:33:38.175Z,989.78
2019-05-30T03:34:28.371Z,989.74
2019-05-30T03:35:29.514Z,989.75
2019-05-30T03:36:29.862Z,989.77
2019-05-30T03:37:29.338Z,989.79
2019-05-30T03:38:22.673Z,989.76
2019-05-30T03:39:21.599Z,989.72
2019-05-30T03:40:23.480Z,989.76
2019-05-30T03:41:21.579Z,989.78
2019-05-30T03:42:21.661Z,989.77
2019-05-30T03:43:21.561Z,989.71
2019-05-30T03:44:21.531Z,989.74
2019-05-30T03:45:21.523Z,989.82
2019-05-30T03:46:21.536Z,989.76
2019-05-30T03:47:21.493Z,989.76
2019-05-30T03:48:21.615Z,989.74
2019-05-30T03:49:21.544Z,989.76
2019-05-30T03:50:21.467Z,989.73
2019-05-30T03:51:21.475Z,989.81
2019-05-30T03:52:21.455Z,989.78
2019-05-30T03:53:21.567Z,989.78
2019-05-30T03:54:21.493Z,989.74
2019-05-30T03:55:21.420Z,989.74
2019-05-30T03:56:21.407Z,989.75
2019-05-30T03:57:21.390Z,989.74
2019-05-30T03:58:21.498Z,989.83
2019-05-30T03:59:21.357Z,989.78
2019-05-30T04:00:21.388Z,989.82
2019-05-30T04:01:21.340Z,989.82
2019-05-30T04:02:21.433Z,989.79
2019-05-30T04:03:21.331Z,989.77
2019-05-30T04:04:21.372Z,989.81
2019-05-30T04:05:21.302Z,989.78
2019-05-30T04:06:21.404Z,989.75
2019-05-30T04:07:21.282Z,989.78
2019-05-30T04:08:21.383Z,989.79
2019-05-30T04:09:24.532Z,989.74
2019-05-30T04:10:21.260Z,989.76
2019-05-30T04:11:21.345Z,989.77
2019-05-30T04:12:21.215Z,989.75
2019-05-30T04:13:22.236Z,989.73
2019-05-30T04:14:21.194Z,989.80
2019-05-30T04:15:21.186Z,989.78
2019-05-30T04:16:21.278Z,989.79
2019-05-30T04:17:21.158Z,989.80
2019-05-30T04:18:21.282Z,989.82
2019-05-30T04:19:21.148Z,989.76
2019-05-30T04:20:23.218Z,989.81
2019-05-30T04:21:21.774Z,989.82
2019-05-30T04:22:21.113Z,989.79
2019-05-30T04:23:21.159Z,989.81
2019-05-30T04:24:21.110Z,989.81
2019-05-30T04:25:21.089Z,989.77
2019-05-30T04:26:21.072Z,989.80
2019-05-30T04:27:21.125Z,989.77
2019-05-30T04:28:21.031Z,989.82
2019-05-30T04:29:21.115Z,989.82
2019-05-30T04:30:21.013Z,989.82
2019-05-30T04:31:21.097Z,989.81
2019-05-30T04:32:20.993Z,989.85
2019-05-30T04:33:32.325Z,989.82
2019-05-30T04:34:21.987Z,989.84
2019-05-30T04:35:21.076Z,989.85
2019-05-30T04:36:20.957Z,989.84
2019-05-30T04:37:21.015Z,989.86
2019-05-30T04:38:21.027Z,989.85
2019-05-30T04:39:20.987Z,989.82
2019-05-30T04:40:20.910Z,989.88
2019-05-30T04:41:21.139Z,989.88
2019-05-30T04:42:20.968Z,989.86
2019-05-30T04:43:20.914Z,989.87
2019-05-30T04:44:20.900Z,989.87
2019-05-30T04:45:27.403Z,989.82
2019-05-30T04:46:22.212Z,989.85
2019-05-30T04:47:21.006Z,989.88
2019-05-30T04:48:21.435Z,989.84
2019-05-30T04:49:21.609Z,989.84
2019-05-30T04:50:20.904Z,989.79
2019-05-30T04:51:21.652Z,989.84
2019-05-30T04:52:24.426Z,989.82
2019-05-30T04:53:21.179Z,989.81
2019-05-30T04:54:21.372Z,989.81
2019-05-30T04:55:23.039Z,989.81
2019-05-30T04:56:21.952Z,989.79
2019-05-30T04:57:25.637Z,989.83
2019-05-30T04:58:24.125Z,989.82
2019-05-30T04:59:22.035Z,989.81
2019-05-30T05:00:21.493Z,989.87
2019-05-30T05:01:22.163Z,989.81
2019-05-30T05:02:23.055Z,989.80
2019-05-30T05:03:43.436Z,989.85
2019-05-30T05:04:21.939Z,989.84
2019-05-30T05:05:26.308Z,989.83
2019-05-30T05:06:22.104Z,989.88
2019-05-30T05:07:22.050Z,989.81
2019-05-30T05:08:21.976Z,989.83
2019-05-30T05:09:22.176Z,989.84
2019-05-30T05:10:22.329Z,989.82
2019-05-30T05:11:23.593Z,989.84
2019-05-30T05:12:20.555Z,989.89
2019-05-30T05:13:20.553Z,989.85
2019-05-30T05:14:20.667Z,989.82
2019-05-30T05:15:20.777Z,989.86
2019-05-30T05:16:30.797Z,989.90
2019-05-30T05:17:22.962Z,989.85
2019-05-30T05:18:21.107Z,989.79
2019-05-30T05:19:22.173Z,989.81
2019-05-30T05:20:21.414Z,989.83
2019-05-30T05:21:21.035Z,989.86
2019-05-30T05:22:21.173Z,989.89
2019-05-30T05:23:21.338Z,989.86
2019-05-30T05:24:21.443Z,989.84
2019-05-30T05:25:20.446Z,989.82
2019-05-30T05:26:21.566Z,989.83
2019-05-30T05:27:20.381Z,989.80
2019-05-30T05:28:20.475Z,989.81
2019-05-30T05:29:20.364Z,989.85
2019-05-30T05:30:20.413Z,989.80
2019-05-30T05:31:20.440Z,989.79
2019-05-30T05:32:20.500Z,989.81
2019-05-30T05:33:20.629Z,989.79
2019-05-30T05:34:21.354Z,989.78
2019-05-30T05:35:20.863Z,989.81
2019-05-30T05:36:20.962Z,989.74
2019-05-30T05:37:21.151Z,989.77
2019-05-30T05:38:20.257Z,989.76
2019-05-30T05:39:20.377Z,989.78
2019-05-30T05:40:20.239Z,989.81
2019-05-30T05:41:20.278Z,989.75
2019-05-30T05:42:20.346Z,989.74
2019-05-30T05:43:20.350Z,989.75
2019-05-30T05:44:20.400Z,989.78
2019-05-30T05:45:20.526Z,989.74
2019-05-30T05:46:20.396Z,989.74
2019-05-30T05:47:20.501Z,989.76
2019-05-30T05:48:20.461Z,989.74
2019-05-30T05:49:22.527Z,989.74
2019-05-30T05:50:20.497Z,989.72
2019-05-30T05:51:20.767Z,989.73
2019-05-30T05:52:20.705Z,989.74
2019-05-30T05:53:20.862Z,989.76
2019-05-30T05:54:20.898Z,989.72
2019-05-30T05:55:20.856Z,989.72
2019-05-30T05:56:20.847Z,989.75
2019-05-30T05:57:20.788Z,989.77
2019-05-30T05:58:20.905Z,989.72
2019-05-30T05:59:20.971Z,989.73
2019-05-30T06:00:21.275Z,989.71
2019-05-30T06:01:21.412Z,989.66
2019-05-30T06:02:21.103Z,989.68
2019-05-30T06:03:20.399Z,989.67
2019-05-30T06:04:21.010Z,989.63
2019-05-30T06:05:20.232Z,989.64
2019-05-30T06:06:21.189Z,989.66
2019-05-30T06:07:20.306Z,989.66
2019-05-30T06:08:19.921Z,989.67
2019-05-30T06:09:20.822Z,989.66
2019-05-30T06:10:19.906Z,989.64
2019-05-30T06:11:20.530Z,989.64
2019-05-30T06:12:19.875Z,989.58
2019-05-30T06:13:20.766Z,989.60
2019-05-30T06:14:19.997Z,989.54
2019-05-30T06:15:20.816Z,989.49
2019-05-30T06:16:19.974Z,989.53
2019-05-30T06:17:21.114Z,989.45
2019-05-30T06:18:20.235Z,989.52
2019-05-30T06:19:21.086Z,989.48
2019-05-30T06:20:19.870Z,989.53
2019-05-30T06:21:19.778Z,989.54
2019-05-30T06:22:19.859Z,989.54
2019-05-30T06:23:19.769Z,989.56
2019-05-30T06:24:19.780Z,989.53
2019-05-30T06:25:22.271Z,989.56
2019-05-30T06:26:20.033Z,989.56
2019-05-30T06:27:20.115Z,989.47
2019-05-30T06:28:19.997Z,989.44
2019-05-30T06:29:20.141Z,989.45
2019-05-30T06:30:20.393Z,989.47
2019-05-30T06:31:20.316Z,989.51
2019-05-30T06:32:20.905Z,989.50
2019-05-30T06:33:20.574Z,989.46
2019-05-30T06:34:30.257Z,989.49
2019-05-30T06:35:21.405Z,989.45
2019-05-30T06:36:20.855Z,989.47
2019-05-30T06:37:19.669Z,989.42
2019-05-30T06:38:19.577Z,989.43
2019-05-30T06:39:21.313Z,989.50
2019-05-30T06:40:19.571Z,989.42
2019-05-30T06:41:19.540Z,989.44
2019-05-30T06:42:19.602Z,989.44
2019-05-30T06:43:19.896Z,989.47
2019-05-30T06:44:19.860Z,989.46
2019-05-30T06:45:21.010Z,989.46
2019-05-30T06:46:20.126Z,989.45
2019-05-30T06:47:20.156Z,989.46
2019-05-30T06:48:20.624Z,989.47
2019-05-30T06:49:20.596Z,989.53
2019-05-30T06:50:20.610Z,989.51
2019-05-30T06:51:20.875Z,989.49
2019-05-30T06:52:20.783Z,989.48
2019-05-30T06:53:19.457Z,989.49
2019-05-30T06:54:19.397Z,989.50
2019-05-30T06:55:19.498Z,989.51
2019-05-30T06:56:19.388Z,989.51
2019-05-30T06:57:19.442Z,989.52
2019-05-30T06:58:19.351Z,989.51
2019-05-30T06:59:19.372Z,989.54
2019-05-30T07:00:19.339Z,989.50
2019-05-30T07:01:19.465Z,989.53
2019-05-30T07:02:19.358Z,989.53
2019-05-30T07:03:19.469Z,989.56
2019-05-30T07:04:19.673Z,989.52
2019-05-30T07:05:20.035Z,989.55
2019-05-30T07:06:19.697Z,989.60
2019-05-30T07:07:19.472Z,989.61
2019-05-30T07:08:19.287Z,989.59
2019-05-30T07:09:19.237Z,989.58
2019-05-30T07:10:19.317Z,989.57
2019-05-30T07:11:19.239Z,989.47
2019-05-30T07:12:19.988Z,989.46
2019-05-30T07:13:19.230Z,989.51
2019-05-30T07:14:19.190Z,989.50
2019-05-30T07:15:19.261Z,989.51
2019-05-30T07:16:19.171Z,989.55
2019-05-30T07:17:19.153Z,989.52
2019-05-30T07:18:19.245Z,989.54
2019-05-30T07:19:19.233Z,989.53
2019-05-30T07:20:19.114Z,989.58
2019-05-30T07:21:19.214Z,989.55
2019-05-30T07:22:19.086Z,989.58
2019-05-30T07:23:19.086Z,989.57
2019-05-30T07:24:19.176Z,989.61
2019-05-30T07:25:19.067Z,989.58
2019-05-30T07:26:19.168Z,989.54
2019-05-30T07:27:19.041Z,989.64
2019-05-30T07:28:19.019Z,989.73
2019-05-30T07:29:19.109Z,989.65
2019-05-30T07:30:19.000Z,989.61
2019-05-30T07:31:19.091Z,989.52
2019-05-30T07:32:18.972Z,989.60
2019-05-30T07:33:18.962Z,989.63
2019-05-30T07:34:18.966Z,989.61
2019-05-30T07:35:19.033Z,989.64
2019-05-30T07:36:18.945Z,989.65
2019-05-30T07:37:19.015Z,989.65
2019-05-30T07:38:18.916Z,989.60
2019-05-30T07:39:18.996Z,989.58
2019-05-30T07:40:19.880Z,989.61
2019-05-30T07:41:18.929Z,989.55
2019-05-30T07:42:18.895Z,989.50
2019-05-30T07:43:18.970Z,989.49
2019-05-30T07:44:18.942Z,989.46
2019-05-30T07:45:18.832Z,989.47
2019-05-30T07:46:18.881Z,989.50
2019-05-30T07:47:18.851Z,989.41
2019-05-30T07:48:18.912Z,989.48
2019-05-30T07:49:18.884Z,989.46
2019-05-30T07:50:18.786Z,989.43
2019-05-30T07:51:19.845Z,989.45
2019-05-30T07:52:18.784Z,989.41
2019-05-30T07:53:18.855Z,989.45
2019-05-30T07:54:18.738Z,989.48
2019-05-30T07:55:18.757Z,989.45
2019-05-30T07:56:18.758Z,989.44
2019-05-30T07:57:18.719Z,989.44
2019-05-30T07:58:18.801Z,989.37
2019-05-30T07:59:18.689Z,989.34
2019-05-30T08:00:18.680Z,989.29
2019-05-30T08:01:18.664Z,989.24
2019-05-30T08:02:18.713Z,989.22
2019-05-30T08:03:18.645Z,989.30
2019-05-30T08:04:18.702Z,989.32
2019-05-30T08:05:23.990Z,989.33
2019-05-30T08:06:19.594Z,989.39
2019-05-30T08:07:18.658Z,989.35
2019-05-30T08:08:18.575Z,989.35
2019-05-30T08:09:18.646Z,989.40
2019-05-30T08:10:18.556Z,989.47
2019-05-30T08:11:18.587Z,989.39
2019-05-30T08:12:18.558Z,989.42
2019-05-30T08:13:18.619Z,989.44
2019-05-30T08:14:18.523Z,989.42
2019-05-30T08:15:18.550Z,989.39
2019-05-30T08:16:18.502Z,989.48
2019-05-30T08:17:18.534Z,989.45
2019-05-30T08:18:18.463Z,989.34
2019-05-30T08:19:18.523Z,989.44
2019-05-30T08:20:18.452Z,989.41
2019-05-30T08:21:18.434Z,989.42
2019-05-30T08:22:18.485Z,989.44
2019-05-30T08:23:18.431Z,989.39
2019-05-30T08:24:18.467Z,989.44
2019-05-30T08:25:18.400Z,989.37
2019-05-30T08:26:18.530Z,989.39
2019-05-30T08:27:18.378Z,989.36
2019-05-30T08:28:18.494Z,989.34
2019-05-30T08:29:18.350Z,989.35
2019-05-30T08:30:18.382Z,989.34
2019-05-30T08:31:18.341Z,989.28
2019-05-30T08:32:18.311Z,989.29
2019-05-30T08:33:21.360Z,989.37
2019-05-30T08:34:18.303Z,989.32
2019-05-30T08:35:18.324Z,989.38
2019-05-30T08:36:18.277Z,989.38
2019-05-30T08:37:18.356Z,989.35
2019-05-30T08:38:18.276Z,989.39
2019-05-30T08:39:18.287Z,989.38
2019-05-30T08:40:18.227Z,989.36
2019-05-30T08:41:18.346Z,989.30
2019-05-30T08:42:18.199Z,989.33
2019-05-30T08:43:18.333Z,989.34
2019-05-30T08:44:18.181Z,989.36
2019-05-30T08:45:18.201Z,989.35
2019-05-30T08:46:18.171Z,989.33
2019-05-30T08:47:18.163Z,989.34
2019-05-30T08:48:18.166Z,989.37
2019-05-30T08:49:18.173Z,989.33
2019-05-30T08:50:18.124Z,989.34
2019-05-30T08:51:18.205Z,989.34
2019-05-30T08:52:18.175Z,989.35
2019-05-30T08:53:18.101Z,989.39
2019-05-30T08:54:18.110Z,989.37
2019-05-30T08:55:18.047Z,989.38
2019-05-30T08:56:18.148Z,989.36
2019-05-30T08:57:18.049Z,989.33
2019-05-30T08:58:18.145Z,989.34
2019-05-30T08:59:18.030Z,989.35
2019-05-30T09:00:18.022Z,989.36
2019-05-30T09:01:18.002Z,989.39
2019-05-30T09:02:18.067Z,989.34
2019-05-30T09:03:18.013Z,989.34
2019-05-30T09:04:17.993Z,989.26
2019-05-30T09:05:17.946Z,989.34
2019-05-30T09:06:18.037Z,989.30
2019-05-30T09:07:17.925Z,989.32
2019-05-30T09:08:17.926Z,989.25
2019-05-30T09:09:17.940Z,989.25
2019-05-30T09:10:17.913Z,989.24
2019-05-30T09:11:17.979Z,989.27
2019-05-30T09:12:17.879Z,989.29
2019-05-30T09:13:17.891Z,989.29
2019-05-30T09:14:17.861Z,989.24
2019-05-30T09:15:21.725Z,989.27
2019-05-30T09:16:17.837Z,989.29
2019-05-30T09:17:17.882Z,989.42
2019-05-30T09:18:17.853Z,989.35
2019-05-30T09:19:17.816Z,989.30
2019-05-30T09:20:17.885Z,989.28
2019-05-30T09:21:17.785Z,989.23
2019-05-30T09:22:17.827Z,989.26
2019-05-30T09:23:17.756Z,989.19
2019-05-30T09:24:17.848Z,989.14
2019-05-30T09:25:17.737Z,989.07
2019-05-30T09:26:17.788Z,989.11
2019-05-30T09:27:17.731Z,989.06
2019-05-30T09:28:17.731Z,989.10
2019-05-30T09:29:17.700Z,989.06
2019-05-30T09:30:17.788Z,988.88
2019-05-30T09:31:17.676Z,989.05
2019-05-30T09:32:17.702Z,989.06
2019-05-30T09:33:17.653Z,989.02
2019-05-30T09:34:17.654Z,988.97
2019-05-30T09:35:17.636Z,988.95
2019-05-30T09:36:17.685Z,989.01
2019-05-30T09:37:17.607Z,988.99
2019-05-30T09:38:17.608Z,988.98
2019-05-30T09:39:17.617Z,989.09
2019-05-30T09:40:17.564Z,989.17
2019-05-30T09:41:17.620Z,989.11
2019-05-30T09:42:17.539Z,989.08
2019-05-30T09:43:17.559Z,989.07
2019-05-30T09:44:17.541Z,989.03
2019-05-30T09:45:17.903Z,989.03
2019-05-30T09:46:17.507Z,989.07
2019-05-30T09:47:17.547Z,989.05
2019-05-30T09:48:17.483Z,989.03
2019-05-30T09:49:17.526Z,989.02
2019-05-30T09:50:17.455Z,989.03
2019-05-30T09:51:17.496Z,989.12
2019-05-30T09:52:17.426Z,989.15
2019-05-30T09:53:17.437Z,989.16
2019-05-30T09:54:17.437Z,989.10
2019-05-30T09:55:17.409Z,989.14
2019-05-30T09:56:17.414Z,989.19
2019-05-30T09:57:17.410Z,989.13
2019-05-30T09:58:17.370Z,989.12
2019-05-30T09:59:18.410Z,989.09
2019-05-30T10:00:17.421Z,989.07
2019-05-30T10:01:17.348Z,989.07
2019-05-30T10:02:17.344Z,989.10
2019-05-30T10:03:17.313Z,989.08
2019-05-30T10:04:18.354Z,989.11
2019-05-30T10:05:17.354Z,989.25
2019-05-30T10:06:29.165Z,989.27
2019-05-30T10:07:18.278Z,989.21
2019-05-30T10:08:17.367Z,989.17
2019-05-30T10:09:17.257Z,989.14
2019-05-30T10:10:17.258Z,989.13
2019-05-30T10:11:17.230Z,989.13
2019-05-30T10:12:17.241Z,989.02
2019-05-30T10:13:17.199Z,989.01
2019-05-30T10:14:17.270Z,989.09
2019-05-30T10:15:17.190Z,989.15
2019-05-30T10:16:17.202Z,989.05
2019-05-30T10:17:17.152Z,989.09
2019-05-30T10:18:17.159Z,989.04
2019-05-30T10:19:17.144Z,989.12
2019-05-30T10:20:17.145Z,989.07
2019-05-30T10:21:17.115Z,989.11
2019-05-30T10:22:17.118Z,989.06
2019-05-30T10:23:17.097Z,988.99
2019-05-30T10:24:17.149Z,988.99
2019-05-30T10:25:17.090Z,988.91
2019-05-30T10:26:17.058Z,988.96
2019-05-30T10:27:17.160Z,988.95
2019-05-30T10:28:17.030Z,988.89
2019-05-30T10:29:17.092Z,988.85
2019-05-30T10:30:17.031Z,988.86
2019-05-30T10:31:17.005Z,988.91
2019-05-30T10:32:17.003Z,988.86
2019-05-30T10:33:16.983Z,988.90
2019-05-30T10:34:17.037Z,988.90
2019-05-30T10:35:16.985Z,988.81
2019-05-30T10:36:19.838Z,988.77
2019-05-30T10:37:16.936Z,988.90
2019-05-30T10:38:19.972Z,988.78
2019-05-30T10:39:16.916Z,988.81
2019-05-30T10:40:16.987Z,988.83
2019-05-30T10:41:16.888Z,988.84
2019-05-30T10:42:16.880Z,988.69
2019-05-30T10:43:17.971Z,988.80
2019-05-30T10:44:16.871Z,988.82
2019-05-30T10:45:16.942Z,988.93
2019-05-30T10:46:16.842Z,988.90
2019-05-30T10:47:16.832Z,988.83
2019-05-30T10:48:20.406Z,988.81
2019-05-30T10:49:16.804Z,988.82
2019-05-30T10:50:16.879Z,988.73
2019-05-30T10:51:16.775Z,988.68
2019-05-30T10:52:16.766Z,988.68
2019-05-30T10:53:16.827Z,988.71
2019-05-30T10:54:16.757Z,988.75
2019-05-30T10:55:16.808Z,988.70
2019-05-30T10:56:16.739Z,988.65
2019-05-30T10:57:16.721Z,988.68
2019-05-30T10:58:16.711Z,988.65
2019-05-30T10:59:16.740Z,988.69
2019-05-30T11:00:16.702Z,988.76
2019-05-30T11:01:16.772Z,988.74
2019-05-30T11:02:16.663Z,988.75
2019-05-30T11:03:16.706Z,988.66
2019-05-30T11:04:16.634Z,988.66
2019-05-30T11:05:16.645Z,988.71
2019-05-30T11:06:16.646Z,988.68
2019-05-30T11:07:16.688Z,988.67
2019-05-30T11:08:16.606Z,988.58
2019-05-30T11:09:16.628Z,988.47
2019-05-30T11:10:16.579Z,988.57
2019-05-30T11:11:17.599Z,988.62
2019-05-30T11:12:16.552Z,988.68
2019-05-30T11:13:16.548Z,988.55
2019-05-30T11:14:16.562Z,988.52
2019-05-30T11:15:16.513Z,988.55
2019-05-30T11:16:16.543Z,988.67
2019-05-30T11:17:16.492Z,988.53
2019-05-30T11:18:16.498Z,988.56
2019-05-30T11:19:16.474Z,988.57
2019-05-30T11:20:16.599Z,988.59
2019-05-30T11:21:16.476Z,988.48
2019-05-30T11:22:16.518Z,988.50
2019-05-30T11:23:16.438Z,988.53
2019-05-30T11:24:16.427Z,988.58
2019-05-30T11:25:16.509Z,988.58
2019-05-30T11:26:16.410Z,988.55
2019-05-30T11:27:16.449Z,988.54
2019-05-30T11:28:16.373Z,988.50
2019-05-30T11:29:16.360Z,988.45
2019-05-30T11:30:16.351Z,988.45
2019-05-30T11:31:16.481Z,988.32
2019-05-30T11:32:16.335Z,988.54
2019-05-30T11:33:16.363Z,988.58
2019-05-30T11:34:16.434Z,988.52
2019-05-30T11:35:16.306Z,988.50
2019-05-30T11:36:16.416Z,988.50
2019-05-30T11:37:18.818Z,988.45
2019-05-30T11:38:16.297Z,988.44
2019-05-30T11:39:16.368Z,988.41
2019-05-30T11:40:16.243Z,988.42
2019-05-30T11:41:16.360Z,988.50
2019-05-30T11:42:16.219Z,988.47
2019-05-30T11:43:16.243Z,988.41
2019-05-30T11:44:16.201Z,988.38
2019-05-30T11:45:16.191Z,988.33
2019-05-30T11:46:16.306Z,988.33
2019-05-30T11:47:16.173Z,988.33
2019-05-30T11:48:16.174Z,988.36
2019-05-30T11:49:16.150Z,988.34
2019-05-30T11:50:16.135Z,988.28
2019-05-30T11:51:16.116Z,988.28
2019-05-30T11:52:16.198Z,988.25
2019-05-30T11:53:16.097Z,988.33
2019-05-30T11:54:17.117Z,988.33
2019-05-30T11:55:16.081Z,988.27
2019-05-30T11:56:17.148Z,988.31
2019-05-30T11:57:16.080Z,988.33
2019-05-30T11:58:19.363Z,988.38
2019-05-30T11:59:16.041Z,988.24
2019-05-30T12:00:16.023Z,988.26
2019-05-30T12:01:16.009Z,988.21
2019-05-30T12:02:18.033Z,988.29
2019-05-30T12:03:15.984Z,988.26
2019-05-30T12:04:16.076Z,988.21
2019-05-30T12:05:15.967Z,988.19
2019-05-30T12:06:15.966Z,988.32
2019-05-30T12:07:16.036Z,988.27
2019-05-30T12:08:15.936Z,988.25
2019-05-30T12:09:16.018Z,988.24
2019-05-30T12:10:15.918Z,988.29
2019-05-30T12:11:15.912Z,988.30
2019-05-30T12:12:15.900Z,988.26
2019-05-30T12:13:16.913Z,988.29
2019-05-30T12:14:15.865Z,988.24
2019-05-30T12:15:15.921Z,988.20
2019-05-30T12:16:15.893Z,988.26
2019-05-30T12:17:15.842Z,988.24
2019-05-30T12:18:15.933Z,988.24
2019-05-30T12:19:15.814Z,988.29
2019-05-30T12:20:15.865Z,988.32
2019-05-30T12:21:15.795Z,988.33
2019-05-30T12:22:15.865Z,988.21
2019-05-30T12:23:15.777Z,988.16
2019-05-30T12:24:15.837Z,988.17
2019-05-30T12:25:15.754Z,988.09
2019-05-30T12:26:15.729Z,988.12
2019-05-30T12:27:15.749Z,988.11
2019-05-30T12:28:15.798Z,988.11